Strona główna
METAR-TAF:

METAR-TAF

Lotnisko :

Port lotniczy Tokio-Haneda

Tokio-Haneda, Japonia

Szerokość geograficzna: 35-33N, Długość geograficzna: 139-47E, wysokość: 5 m

Aktualna obserwacja pogody

Raport powstał 37 minut temu, godzina 20:30 UTC
Wiatr 4 kt od południowy zachód
Temperatura 28°C
Wilgotność 84%
Ciśnienie 1010 hPa
Widzialność 10 km lub więcej
Brak chmur poniżej 1500 m i brak chmur cumulonimbus

METAR: RJTT 172030Z 23004KT CAVOK 28/25 Q1010 NOSIG RMK A2984

czas: 06:07 (21:07 UTC)

Prognoza

Raport powstał 4 godziny i 2 minut temu, godzina 17:05 UTC
Prognoza ważna od 17 godzina 18 UTC do 19 godzina 00 UTC
Wiatr 5 kt od południowy zachód
Widzialność: 8000 m
Mało chmury na wysokości 800 ft
Rozproszone chmury na wysokości 1500 ft
Stopniowe zmiany
od 18 godzina 01 UTC do 18 godzina 03 UTC
Wiatr 16 kt od południe
Stopniowe zmiany
od 18 godzina 18 UTC do 18 godzina 21 UTC
Wiatr 6 kt od południowy zachód

TAF: RJTT 171705Z 1718/1900 23005KT 8000 FEW008 SCT015 BECMG 1801/1803 18016KT BECMG 1818/1821 23006KT

Obserwacja i prognoza pogody dla ponad 4000 lotnisk (raport METAR i TAF).

Dostępne stacje oznaczono żółtymi i czerwonymi punktami na mapie.

Najedź kursorem aby zobaczyć nazwę stacji.

Kliknij aby zobaczyć obserwacje i prognozy pogody.

Aby zmienić mapę: kliknij na zielony przycisk z czarnym krzyżykiem, aby powiększyć; na zielony przycisk z myślnikiem, aby pomniejszyć; na zielone strzałki, aby przejść do map sąsiednich.


METAR-TAF: